Darstellungsparameter: Aktuell verwendete Einstellungen:
Skalierung der Graphiken ... ?
xyx+y,   Skalierungsfaktor:      Skalierung: Modus: x, Faktor: 1
Darstellungszeitraum ... ?
Vom - - bis: - -   Zeitraum: 20.07.2019 - 20.07.2019
Min/Max/Avg-Anzeige ... ?
Zeige MMA aktuell
Zeige MMA Monat
Zeige MMA alles
Zeige --A aktuell
Zeige --A Monat
Zeige --A alles
Keine MMA-Anzeige
MMA:
Keine MMA-Graphiken
MMA-Basis: 20.07.2019 - 20.07.2019
Quicknavigation für Darstellung... ?
Tage:      1T, 2T, 3T, 5T -1T -2T -3T -5T +1T +2T +3T +5T
Wochen: 1W, 2W, 3W -1W -2W -3W +1W +2W +3W
Monate: 1M, 3M, 6M -1M -3M -6M +1M +3M +6M
Jahre:    1J, 3J, 5J, 10J -1J -3J -5J -10J +1J +3J +5J +10J
Nutze für die Darstellung ... ?
Originaldaten oder Mittelwerte auf ...
Stundenbasis Tagesbasis Wochenbasis
Monatsbasis Jahresbasis      Datenbasis: Original-Daten
Darstellen als:
Statistik (Auto) Statistik J:M      Darstellung:
Zur Graphik,    zurück zur Übersicht aller Sensoren.
 
Tabellarische Datenbersicht: ?
 
Sensor: Nr:Datum:Temp:Feuchte:Taupunkt:
Aussen-T/F 1 20-07-2019 00:00:00 17.9 C 85 % 15.34 C
2 20-07-2019 00:05:00 17.8 C 86 % 15.43 C
3 20-07-2019 00:10:00 17.7 C 85 % 15.15 C
4 20-07-2019 00:15:00 17.6 C 85 % 15.05 C
5 20-07-2019 00:20:00 17.5 C 86 % 15.13 C
6 20-07-2019 00:25:00 17.4 C 86 % 15.03 C
7 20-07-2019 00:30:00 17.3 C 86 % 14.94 C
8 20-07-2019 00:35:00 17.2 C 87 % 15.02 C
9 20-07-2019 00:40:00 17.2 C 87 % 15.02 C
10 20-07-2019 00:45:00 17.1 C 87 % 14.92 C
11 20-07-2019 00:50:00 17.1 C 87 % 14.92 C
12 20-07-2019 00:55:00 16.9 C 87 % 14.72 C
13 20-07-2019 01:00:00 17 C 87 % 14.82 C
14 20-07-2019 01:05:00 16.9 C 87 % 14.72 C
15 20-07-2019 01:10:00 16.9 C 87 % 14.72 C
16 20-07-2019 01:15:00 16.8 C 88 % 14.8 C
17 20-07-2019 01:20:00 16.7 C 88 % 14.7 C
18 20-07-2019 01:25:00 16.6 C 88 % 14.6 C
19 20-07-2019 01:30:00 16.5 C 89 % 14.68 C
20 20-07-2019 01:35:00 16.4 C 89 % 14.58 C
21 20-07-2019 01:40:00 16.4 C 89 % 14.58 C
22 20-07-2019 01:45:00 16.4 C 89 % 14.58 C
23 20-07-2019 01:50:00 16.3 C 89 % 14.48 C
24 20-07-2019 01:55:00 16.3 C 89 % 14.48 C
25 20-07-2019 02:00:00 16.2 C 90 % 14.56 C
Sensor: Nr:Datum:Temp:Feuchte:Taupunkt:
Aussen-T/F 26 20-07-2019 02:05:00 16.2 C 90 % 14.56 C
27 20-07-2019 02:10:00 16.1 C 90 % 14.46 C
28 20-07-2019 02:15:00 15.9 C 90 % 14.26 C
29 20-07-2019 02:20:00 15.9 C 90 % 14.26 C
30 20-07-2019 02:25:00 15.8 C 90 % 14.16 C
31 20-07-2019 02:30:00 15.7 C 90 % 14.06 C
32 20-07-2019 02:35:00 15.6 C 91 % 14.14 C
33 20-07-2019 02:40:00 15.5 C 91 % 14.04 C
34 20-07-2019 02:45:00 15.4 C 91 % 13.94 C
35 20-07-2019 02:50:00 15.3 C 91 % 13.84 C
36 20-07-2019 02:55:00 15.3 C 92 % 14.01 C
37 20-07-2019 03:00:00 15.3 C 92 % 14.01 C
38 20-07-2019 03:05:00 15.2 C 92 % 13.91 C
39 20-07-2019 03:10:00 15.2 C 92 % 13.91 C
40 20-07-2019 03:15:00 15.2 C 92 % 13.91 C
41 20-07-2019 03:20:00 15.1 C 92 % 13.81 C
42 20-07-2019 03:25:00 15.1 C 92 % 13.81 C
43 20-07-2019 03:30:00 15 C 93 % 13.88 C
44 20-07-2019 03:35:00 14.9 C 92 % 13.61 C
45 20-07-2019 03:40:00 14.9 C 93 % 13.78 C
46 20-07-2019 03:45:00 14.8 C 93 % 13.68 C
47 20-07-2019 03:50:00 14.8 C 93 % 13.68 C
48 20-07-2019 03:55:00 14.8 C 93 % 13.68 C
49 20-07-2019 04:00:00 14.8 C 93 % 13.68 C
50 20-07-2019 04:05:00 14.7 C 93 % 13.58 C
Sensor: Nr:Datum:Temp:Feuchte:Taupunkt:
Aussen-T/F 51 20-07-2019 04:10:00 14.7 C 93 % 13.58 C
52 20-07-2019 04:15:00 14.7 C 93 % 13.58 C
53 20-07-2019 04:20:00 14.6 C 93 % 13.48 C
54 20-07-2019 04:25:00 14.6 C 93 % 13.48 C
55 20-07-2019 04:30:00 14.6 C 93 % 13.48 C
56 20-07-2019 04:35:00 14.5 C 94 % 13.55 C
57 20-07-2019 04:40:00 14.4 C 94 % 13.45 C
58 20-07-2019 04:45:00 14.4 C 94 % 13.45 C
59 20-07-2019 04:50:00 14.4 C 94 % 13.45 C
60 20-07-2019 04:55:00 14.3 C 94 % 13.35 C
61 20-07-2019 05:00:00 14.3 C 94 % 13.35 C
62 20-07-2019 05:05:00 14.3 C 94 % 13.35 C
63 20-07-2019 05:10:00 14.3 C 94 % 13.35 C
64 20-07-2019 05:15:00 14.2 C 94 % 13.25 C
65 20-07-2019 05:20:00 14.2 C 94 % 13.25 C
66 20-07-2019 05:25:00 14.2 C 95 % 13.41 C
67 20-07-2019 05:30:00 14.2 C 94 % 13.25 C
68 20-07-2019 05:35:00 14.2 C 94 % 13.25 C
69 20-07-2019 05:40:00 14.1 C 94 % 13.15 C
70 20-07-2019 05:45:00 14.1 C 94 % 13.15 C
71 20-07-2019 05:50:00 14.1 C 94 % 13.15 C
72 20-07-2019 05:55:00 14 C 94 % 13.05 C
73 20-07-2019 06:00:00 14 C 94 % 13.05 C
74 20-07-2019 06:05:00 13.9 C 95 % 13.11 C
75 20-07-2019 06:10:00 13.9 C 95 % 13.11 C
Sensor: Nr:Datum:Temp:Feuchte:Taupunkt:
Aussen-T/F 76 20-07-2019 06:15:00 13.9 C 95 % 13.11 C
77 20-07-2019 06:20:00 13.9 C 95 % 13.11 C
78 20-07-2019 06:25:00 13.9 C 95 % 13.11 C
79 20-07-2019 06:30:00 13.9 C 95 % 13.11 C
80 20-07-2019 06:35:00 13.9 C 95 % 13.11 C
81 20-07-2019 06:40:00 13.9 C 95 % 13.11 C
82 20-07-2019 06:45:00 14.1 C 95 % 13.31 C
83 20-07-2019 06:50:00 14.1 C 95 % 13.31 C
84 20-07-2019 06:55:00 14.2 C 95 % 13.41 C
85 20-07-2019 07:00:00 14.2 C 95 % 13.41 C
86 20-07-2019 07:05:00 14.2 C 95 % 13.41 C
87 20-07-2019 07:10:00 14.3 C 95 % 13.51 C
88 20-07-2019 07:15:00 14.4 C 96 % 13.77 C
89 20-07-2019 07:20:00 14.4 C 96 % 13.77 C
90 20-07-2019 07:25:00 14.5 C 96 % 13.87 C
91 20-07-2019 07:30:00 14.6 C 96 % 13.97 C
92 20-07-2019 07:35:00 14.7 C 96 % 14.07 C
93 20-07-2019 07:40:00 14.8 C 96 % 14.17 C
94 20-07-2019 07:45:00 14.8 C 96 % 14.17 C
95 20-07-2019 07:50:00 14.9 C 96 % 14.27 C
96 20-07-2019 07:55:00 15 C 96 % 14.37 C
97 20-07-2019 08:00:00 15.1 C 96 % 14.47 C
98 20-07-2019 08:05:00 15.3 C 96 % 14.67 C
99 20-07-2019 08:10:00 15.4 C 96 % 14.77 C
100 20-07-2019 08:15:00 15.5 C 96 % 14.86 C
Sensor: Nr:Datum:Temp:Feuchte:Taupunkt:
Aussen-T/F 101 20-07-2019 08:20:00 15.7 C 96 % 15.06 C
102 20-07-2019 08:25:00 15.8 C 96 % 15.16 C
103 20-07-2019 08:30:00 15.9 C 96 % 15.26 C
104 20-07-2019 08:35:00 16.1 C 96 % 15.46 C
105 20-07-2019 08:40:00 16.2 C 96 % 15.56 C
106 20-07-2019 08:45:00 16.3 C 96 % 15.66 C
107 20-07-2019 08:50:00 16.5 C 96 % 15.86 C
108 20-07-2019 08:55:00 16.6 C 96 % 15.96 C
109 20-07-2019 09:00:00 16.8 C 96 % 16.16 C
110 20-07-2019 09:05:00 16.9 C 96 % 16.26 C
111 20-07-2019 09:10:00 17 C 96 % 16.36 C
112 20-07-2019 09:15:00 17.2 C 96 % 16.56 C
113 20-07-2019 09:20:00 17.3 C 96 % 16.66 C
114 20-07-2019 09:25:00 17.6 C 95 % 16.79 C
115 20-07-2019 09:30:00 17.8 C 95 % 16.99 C
116 20-07-2019 09:35:00 17.9 C 95 % 17.09 C
117 20-07-2019 09:40:00 18.2 C 94 % 17.22 C
118 20-07-2019 09:45:00 18.4 C 94 % 17.42 C
119 20-07-2019 09:50:00 18.7 C 93 % 17.54 C
120 20-07-2019 09:55:00 19 C 92 % 17.67 C
121 20-07-2019 10:00:00 19.3 C 91 % 17.79 C
122 20-07-2019 10:05:00 19.8 C 91 % 18.29 C
123 20-07-2019 10:10:00 20.2 C 89 % 18.33 C
124 20-07-2019 10:15:00 20.7 C 89 % 18.82 C
125 20-07-2019 10:20:00 21.1 C 88 % 19.03 C
Sensor: Nr:Datum:Temp:Feuchte:Taupunkt:
Aussen-T/F 126 20-07-2019 10:25:00 21.4 C 88 % 19.33 C
127 20-07-2019 10:30:00 21.8 C 88 % 19.72 C
128 20-07-2019 10:35:00 22 C 87 % 19.74 C
129 20-07-2019 10:40:00 22.3 C 87 % 20.03 C
130 20-07-2019 10:45:00 22.5 C 86 % 20.04 C
131 20-07-2019 10:50:00 22.7 C 83 % 19.66 C
132 20-07-2019 10:55:00 23 C 80 % 19.36 C
133 20-07-2019 11:00:00 23.3 C 75 % 18.62 C
134 20-07-2019 11:05:00 23.7 C 73 % 18.57 C
135 20-07-2019 11:10:00 24.2 C 73 % 19.05 C
136 20-07-2019 11:15:00 24.7 C 69 % 18.63 C
137 20-07-2019 11:20:00 25.3 C 67 % 18.73 C
138 20-07-2019 11:25:00 25.7 C 64 % 18.38 C
139 20-07-2019 11:30:00 26.3 C 62 % 18.44 C
140 20-07-2019 11:35:00 26.8 C 56 % 17.29 C
141 20-07-2019 11:40:00 27.2 C 55 % 17.37 C
142 20-07-2019 11:45:00 27.3 C 54 % 17.18 C
143 20-07-2019 11:50:00 27.4 C 56 % 17.84 C
144 20-07-2019 11:55:00 27.7 C 55 % 17.84 C
145 20-07-2019 12:00:00 27.7 C 51 % 16.64 C
146 20-07-2019 12:05:00 27.7 C 52 % 16.95 C
147 20-07-2019 12:10:00 27.8 C 53 % 17.34 C
148 20-07-2019 12:15:00 27.8 C 52 % 17.04 C
149 20-07-2019 12:20:00 27.8 C 51 % 16.73 C
150 20-07-2019 12:25:00 27.8 C 51 % 16.73 C
Sensor: Nr:Datum:Temp:Feuchte:Taupunkt:
Aussen-T/F 151 20-07-2019 12:30:00 27.8 C 51 % 16.73 C
152 20-07-2019 12:35:00 27.8 C 50 % 16.42 C
153 20-07-2019 12:40:00 27.7 C 53 % 17.25 C
154 20-07-2019 12:45:00 27.8 C 51 % 16.73 C
155 20-07-2019 12:50:00 27.8 C 52 % 17.04 C
156 20-07-2019 12:55:00 27.8 C 50 % 16.42 C
157 20-07-2019 13:00:00 27.9 C 51 % 16.83 C
158 20-07-2019 13:05:00 27.9 C 51 % 16.83 C
159 20-07-2019 13:10:00 28.1 C 51 % 17.01 C
160 20-07-2019 13:15:00 28.1 C 50 % 16.7 C
161 20-07-2019 13:20:00 28 C 51 % 16.92 C
162 20-07-2019 13:25:00 27.9 C 52 % 17.13 C
163 20-07-2019 13:30:00 28 C 51 % 16.92 C
164 20-07-2019 13:35:00 28.1 C 51 % 17.01 C
165 20-07-2019 13:40:00 28.3 C 51 % 17.19 C
166 20-07-2019 13:45:00 28.4 C 49 % 16.65 C
167 20-07-2019 13:50:00 28.6 C 50 % 17.16 C
168 20-07-2019 13:55:00 28.8 C 48 % 16.69 C
169 20-07-2019 14:00:00 29.1 C 49 % 17.29 C
170 20-07-2019 14:05:00 29.4 C 48 % 17.24 C
171 20-07-2019 14:10:00 29.7 C 46 % 16.84 C
172 20-07-2019 14:15:00 29.7 C 46 % 16.84 C
173 20-07-2019 14:20:00 29.7 C 45 % 16.5 C
174 20-07-2019 14:25:00 29.7 C 46 % 16.84 C
175 20-07-2019 14:30:00 29.9 C 45 % 16.68 C
Sensor: Nr:Datum:Temp:Feuchte:Taupunkt:
Aussen-T/F 176 20-07-2019 14:35:00 30.1 C 44 % 16.5 C
177 20-07-2019 14:40:00 30.4 C 44 % 16.77 C
178 20-07-2019 14:45:00 30.6 C 45 % 17.31 C
179 20-07-2019 14:50:00 31 C 45 % 17.67 C
180 20-07-2019 14:55:00 31.2 C 42 % 16.76 C
181 20-07-2019 15:00:00 31.2 C 43 % 17.13 C
182 20-07-2019 15:05:00 31.1 C 43 % 17.04 C
183 20-07-2019 15:10:00 31.1 C 44 % 17.4 C
184 20-07-2019 15:15:00 31.2 C 44 % 17.49 C
185 20-07-2019 15:20:00 31.1 C 42 % 16.67 C
186 20-07-2019 15:25:00 31 C 44 % 17.31 C
187 20-07-2019 15:30:00 30.9 C 42 % 16.49 C
188 20-07-2019 15:35:00 30.8 C 44 % 17.13 C
189 20-07-2019 15:40:00 30.6 C 44 % 16.95 C
190 20-07-2019 15:45:00 30.3 C 44 % 16.68 C
191 20-07-2019 15:50:00 30.2 C 46 % 17.3 C
192 20-07-2019 15:55:00 30.1 C 45 % 16.86 C
193 20-07-2019 16:00:00 30.2 C 45 % 16.95 C
194 20-07-2019 16:05:00 30.4 C 45 % 17.13 C
195 20-07-2019 16:10:00 30.4 C 48 % 18.15 C
196 20-07-2019 16:15:00 30.3 C 46 % 17.39 C
197 20-07-2019 16:20:00 29.6 C 56 % 19.89 C
198 20-07-2019 16:25:00 28.6 C 70 % 22.59 C
199 20-07-2019 16:30:00 27.9 C 76 % 23.27 C
200 20-07-2019 16:35:00 27.9 C 79 % 23.92 C
Sensor: Nr:Datum:Temp:Feuchte:Taupunkt:
Aussen-T/F 201 20-07-2019 16:40:00 28.1 C 80 % 24.32 C
202 20-07-2019 16:45:00 28.2 C 79 % 24.21 C
203 20-07-2019 16:50:00 28.1 C 74 % 23.02 C
204 20-07-2019 16:55:00 27.6 C 75 % 22.76 C
205 20-07-2019 17:00:00 27.1 C 76 % 22.5 C
206 20-07-2019 17:05:00 26.8 C 77 % 22.43 C
207 20-07-2019 17:10:00 27.2 C 76 % 22.6 C
208 20-07-2019 17:15:00 27.7 C 63 % 20.01 C
209 20-07-2019 17:20:00 28.7 C 54 % 18.47 C
210 20-07-2019 17:25:00 29.2 C 64 % 21.68 C
211 20-07-2019 17:30:00 28.9 C 52 % 18.05 C
212 20-07-2019 17:35:00 28.9 C 53 % 18.36 C
213 20-07-2019 17:40:00 29.1 C 60 % 20.54 C
214 20-07-2019 17:45:00 29 C 51 % 17.84 C
215 20-07-2019 17:50:00 28.8 C 49 % 17.02 C
216 20-07-2019 17:55:00 28.8 C 56 % 19.14 C
217 20-07-2019 18:00:00 28.9 C 50 % 17.43 C
218 20-07-2019 18:05:00 29 C 52 % 18.15 C
219 20-07-2019 18:10:00 28.9 C 50 % 17.43 C
220 20-07-2019 18:15:00 28.8 C 49 % 17.02 C
221 20-07-2019 18:20:00 28.8 C 49 % 17.02 C
222 20-07-2019 18:25:00 28.8 C 48 % 16.69 C
223 20-07-2019 18:30:00 28.9 C 48 % 16.79 C
224 20-07-2019 18:35:00 28.9 C 48 % 16.79 C
225 20-07-2019 18:40:00 28.9 C 52 % 18.05 C
Sensor: Nr:Datum:Temp:Feuchte:Taupunkt:
Aussen-T/F 226 20-07-2019 18:45:00 28.9 C 48 % 16.79 C
227 20-07-2019 18:50:00 29.1 C 51 % 17.93 C
228 20-07-2019 18:55:00 29.2 C 47 % 16.73 C
229 20-07-2019 19:00:00 29.3 C 46 % 16.48 C
230 20-07-2019 19:05:00 29.3 C 44 % 15.78 C
231 20-07-2019 19:10:00 29.2 C 47 % 16.73 C
232 20-07-2019 19:15:00 29.3 C 45 % 16.13 C
233 20-07-2019 19:20:00 29.3 C 48 % 17.15 C
234 20-07-2019 19:25:00 29.3 C 44 % 15.78 C
235 20-07-2019 19:30:00 28.1 C 54 % 17.92 C
236 20-07-2019 19:35:00 26.8 C 58 % 17.84 C
237 20-07-2019 19:40:00 25.7 C 61 % 17.61 C
238 20-07-2019 19:45:00 25 C 64 % 17.72 C
239 20-07-2019 19:50:00 24.6 C 66 % 17.83 C
240 20-07-2019 19:55:00 24.2 C 66 % 17.45 C
241 20-07-2019 20:00:00 24.1 C 67 % 17.59 C
242 20-07-2019 20:05:00 23.9 C 68 % 17.63 C
243 20-07-2019 20:10:00 23.8 C 68 % 17.54 C
244 20-07-2019 20:15:00 23.7 C 68 % 17.44 C
245 20-07-2019 20:20:00 23.6 C 69 % 17.58 C
246 20-07-2019 20:25:00 23.4 C 69 % 17.39 C
247 20-07-2019 20:30:00 23.3 C 69 % 17.29 C
248 20-07-2019 20:35:00 23.2 C 69 % 17.2 C
249 20-07-2019 20:40:00 23.1 C 70 % 17.33 C
250 20-07-2019 20:45:00 23.1 C 72 % 17.78 C
Sensor: Nr:Datum:Temp:Feuchte:Taupunkt:
Aussen-T/F 251 20-07-2019 20:50:00 23 C 73 % 17.9 C
252 20-07-2019 20:55:00 22.9 C 73 % 17.8 C
253 20-07-2019 21:00:00 22.7 C 74 % 17.83 C
254 20-07-2019 21:05:00 22.5 C 74 % 17.63 C
255 20-07-2019 21:10:00 22.3 C 74 % 17.44 C
256 20-07-2019 21:15:00 22.1 C 75 % 17.46 C
257 20-07-2019 21:20:00 21.8 C 75 % 17.17 C
258 20-07-2019 21:25:00 21.7 C 76 % 17.28 C
259 20-07-2019 21:30:00 21.6 C 76 % 17.19 C
260 20-07-2019 21:35:00 21.4 C 77 % 17.2 C
261 20-07-2019 21:40:00 21.3 C 78 % 17.31 C
262 20-07-2019 21:45:00 21.2 C 78 % 17.21 C
263 20-07-2019 21:50:00 21.1 C 78 % 17.11 C
264 20-07-2019 21:55:00 21 C 78 % 17.02 C
265 20-07-2019 22:00:00 20.9 C 78 % 16.92 C
266 20-07-2019 22:05:00 20.9 C 78 % 16.92 C
267 20-07-2019 22:10:00 20.8 C 78 % 16.82 C
268 20-07-2019 22:15:00 20.8 C 79 % 17.02 C
269 20-07-2019 22:20:00 20.7 C 80 % 17.13 C
270 20-07-2019 22:25:00 20.7 C 81 % 17.32 C
271 20-07-2019 22:30:00 20.6 C 81 % 17.22 C
272 20-07-2019 22:35:00 20.5 C 81 % 17.13 C
273 20-07-2019 22:40:00 20.3 C 81 % 16.93 C
274 20-07-2019 22:45:00 20.3 C 81 % 16.93 C
275 20-07-2019 22:50:00 20.2 C 81 % 16.84 C
Sensor: Nr:Datum:Temp:Feuchte:Taupunkt:
Aussen-T/F 276 20-07-2019 22:55:00 20.1 C 82 % 16.93 C
277 20-07-2019 23:00:00 20.1 C 82 % 16.93 C
278 20-07-2019 23:05:00 20.1 C 83 % 17.12 C
279 20-07-2019 23:10:00 19.9 C 82 % 16.74 C
280 20-07-2019 23:15:00 19.9 C 83 % 16.93 C
281 20-07-2019 23:20:00 19.8 C 83 % 16.83 C
282 20-07-2019 23:25:00 19.7 C 83 % 16.73 C
283 20-07-2019 23:30:00 19.7 C 83 % 16.73 C
284 20-07-2019 23:35:00 19.6 C 84 % 16.82 C
285 20-07-2019 23:40:00 19.6 C 85 % 17.01 C
286 20-07-2019 23:45:00 19.6 C 85 % 17.01 C
287 20-07-2019 23:50:00 19.5 C 85 % 16.91 C
288 20-07-2019 23:55:00 19.5 C 85 % 16.91 C

Legende:
   Min
   Max


Maximal/Minimal-Werte vom 20.07.2019 - 20.07.2019

Sensor Min Max Avg
Temp
(Aussen-T/F)
13.9 °C
20-07-2019  06:05:00
31.2 °C
20-07-2019  14:55:00
21.62 °C
Feuchte
(Aussen-T/F)
42 %
20-07-2019  14:55:00
96 %
20-07-2019  07:15:00
75.23 %
Taupunkt
(Aussen-T/F)
13.05 C
20-07-2019  05:55:00
24.32 C
20-07-2019  16:40:00
16.31 C

Die Daten stammen von einer Davis Vantage Pro 2 Wetter-Station und werden unter Linux mit der Software wview2wettercgi und aufbereitet. Alle Angaben erfolgen ohne Gewähr für ihre Vollständigkeit oder Richtigkeit.
Kontakt: Rainer Krienke krienke@uni-koblenz.de . Meine Webseiten an der Uni Koblenz oder privat.
Version: $Revision: 0.78 $